Stouffville Airport

CA-0635 · 安大略, 加拿大

使用的TAF站离机场有17 NM的距离
2024年4月24日 16:002024年4月25日 04:00有效
时间
星期三
16:00
星期三
17:00
星期三
18:00
星期三
19:00
星期三
20:00
星期三
21:00
星期三
22:00
星期三
23:00
星期四
00:00
星期四
01:00
星期四
02:00
星期四
03:00
代码
VFR
VFR
VFR
VFR
VFR
VFR
VFR
VFR
VFR
VFR
VFR
VFR
天气
碎云
碎云
碎云
碎云
天空晴朗
天空晴朗
天空晴朗
天空晴朗
天空晴朗
天空晴朗
天空晴朗
天空晴朗
能见度
6 mi+
6 mi+
6 mi+
6 mi+
6 mi+
6 mi+
6 mi+
6 mi+
6 mi+
6 mi+
6 mi+
6 mi+
天花板
10.000 ft
10.000 ft
10.000 ft
10.000 ft
-
-
-
-
-
-
-
-
010°
010°
010°
010°
020°
020°
020°
020°
020°
020°
020°
020°
020°
020°
020°
020°
020°
020°
020°
020°
020°
020°
020°
020°
速度
10 kt
10 kt
10 kt
10 kt
8 kt
8 kt
8 kt
8 kt
8 kt
8 kt
8 kt
8 kt
阵风
20 kt
20 kt
20 kt
20 kt
温度/星期日
20:10

原版的

TAF CYOO 241940Z 2420/2508 01010G20KT P6SM BKN100
BECMG 2422/2424 02008KT SKC RMK FCST BASED ON AUTO OBS. NXT FCST BY 250200Z

TAF Stouffville Airport

Stouffville Airport是,加拿大中的小机场。 该机场位于纬度43,99335和经度-79,26667。 该机场有一条跑道: 8/26. 这个机场没有ICAO代码,我们使用CA-0635作为参考。 机场在Toronto FIR中。

该航空气象观测是针对Oshawa Airport在2024年4月24日 15:40, 当地时间进行的。 从2024年4月24日 16:00到2024年4月25日 04:00, 当地时间有效.

预报

  • 在星期三 16:00和星期四 04:00之间

    • 风: 风来自010°方向,速度为10 kt。 预计20 kt阵风。
    • 能见度: 6 mi 或者更多
    • 乌云: 碎云在10.000 ft的高度.
  • 介于星期三 18:00和20:00之间

    • 风: 风来自020°方向,速度为8 kt。
    • 乌云: 没有云.

白天

今天,太阳从06:17升起,在20:12降落。 这适用于Stouffville Airport,世界夏令时可能有所不同。 当地时间与世界标准时间之间的时差为-4 小时。 夏令时目前正在进行中。

报告变更